Time;durP1;ratioP1;P1;durP2;ratioP2;P2;SDS_P1;SDS_P2;PMS_P1;PMS_P2;Temp;Humidity;BMP_temperature;BMP_pressure;BME280_temperature;BME280_humidity;BME280_pressure;Samples;Min_cycle;Max_cycle;Signal;HPM_P1;HPM_P2
2021/08/11 00:00:39;;;;;;;8.38;4.65;;;;;;;15.42;85.66;95855.09;5046392;28;20085;-80
2021/08/11 00:03:21;;;;;;;9.27;4.85;;;;;;;15.42;86.13;95854.31;5054580;28;20059;-79
2021/08/11 00:05:46;;;;;;;9.27;4.90;;;;;;;15.32;86.26;95860.59;5043563;28;20037;-80
2021/08/11 00:08:12;;;;;;;12.35;5.13;;;;;;;15.25;86.48;95860.16;5057790;28;20052;-80
2021/08/11 00:10:37;;;;;;;9.20;4.90;;;;;;;15.29;86.96;95866.47;5043530;28;20139;-79
2021/08/11 00:13:03;;;;;;;7.50;4.35;;;;;;;15.30;87.56;95873.34;5048475;28;20044;-80
2021/08/11 00:15:28;;;;;;;11.82;4.43;;;;;;;15.31;87.08;95874.13;5040059;28;20045;-80
2021/08/11 00:17:54;;;;;;;11.60;5.38;;;;;;;15.22;86.98;95882.75;5029740;28;20521;-80
2021/08/11 00:20:22;;;;;;;7.80;5.03;;;;;;;15.23;87.67;95883.53;5029222;28;20072;-79
2021/08/11 00:22:47;;;;;;;10.55;5.22;;;;;;;15.13;87.97;95883.69;5030388;28;20128;-79
2021/08/11 00:25:13;;;;;;;8.27;4.72;;;;;;;15.15;88.07;95886.84;5029893;28;20164;-80
2021/08/11 00:27:38;;;;;;;10.40;5.03;;;;;;;15.17;87.85;95898.75;5028240;28;20053;-79
2021/08/11 00:30:05;;;;;;;11.07;4.90;;;;;;;15.24;87.97;95911.63;5037324;28;20041;-79
2021/08/11 00:32:31;;;;;;;11.80;4.93;;;;;;;15.13;88.09;95915.50;5044306;28;20036;-79
2021/08/11 00:34:57;;;;;;;8.18;4.72;;;;;;;15.10;88.61;95927.47;5049783;28;20041;-79
2021/08/11 00:37:22;;;;;;;11.70;5.22;;;;;;;15.23;87.83;95915.38;5050038;28;20098;-81
2021/08/11 00:39:48;;;;;;;10.38;5.28;;;;;;;15.27;88.54;95905.75;5039987;28;20410;-80
2021/08/11 00:42:13;;;;;;;13.35;5.22;;;;;;;15.24;87.87;95901.00;5032209;28;20052;-79
2021/08/11 00:44:39;;;;;;;9.52;5.03;;;;;;;15.31;87.94;95890.81;5041434;28;20673;-80
2021/08/11 00:47:05;;;;;;;8.50;5.10;;;;;;;15.19;89.07;95898.44;5045862;28;20049;-80
2021/08/11 00:49:32;;;;;;;13.73;4.95;;;;;;;15.17;89.36;95890.78;5044892;28;20487;-80
2021/08/11 00:51:58;;;;;;;11.18;5.07;;;;;;;15.07;89.23;95881.13;5066091;28;20048;-81
2021/08/11 00:54:25;;;;;;;6.72;4.22;;;;;;;15.15;89.48;95887.63;5046738;28;20415;-80
2021/08/11 00:56:54;;;;;;;9.98;5.07;;;;;;;14.71;91.02;95868.41;5040095;28;20038;-80
2021/08/11 00:59:21;;;;;;;10.07;5.35;;;;;;;14.53;92.37;95867.28;5035902;28;20059;-79
2021/08/11 01:01:49;;;;;;;10.00;5.07;;;;;;;14.75;91.62;95862.53;5030177;28;20046;-81
2021/08/11 01:04:17;;;;;;;10.60;4.95;;;;;;;14.80;91.30;95881.00;5040603;28;20075;-80
2021/08/11 01:06:43;;;;;;;12.02;5.05;;;;;;;14.97;90.76;95886.59;5058614;28;20041;-80
2021/08/11 01:09:12;;;;;;;11.70;5.22;;;;;;;15.22;89.89;95897.88;5059678;28;20056;-81
2021/08/11 01:11:37;;;;;;;9.02;5.25;;;;;;;15.21;89.86;95906.91;5050131;28;20045;-80
2021/08/11 01:14:03;;;;;;;10.13;5.38;;;;;;;15.28;89.85;95915.25;5053581;28;20412;-82
2021/08/11 01:16:29;;;;;;;8.43;4.75;;;;;;;15.19;90.22;95909.06;5057899;28;20068;-81
2021/08/11 01:18:54;;;;;;;11.18;5.43;;;;;;;15.09;90.49;95898.63;5051940;28;20099;-80
2021/08/11 01:21:34;;;;;;;10.82;6.10;;;;;;;15.11;90.91;95899.09;5032682;28;20048;-81
2021/08/11 01:24:00;;;;;;;10.20;5.25;;;;;;;15.10;90.29;95905.47;5038339;28;20063;-80
2021/08/11 01:26:53;;;;;;;9.77;5.53;;;;;;;15.05;90.59;95903.69;5060824;28;20033;-80
2021/08/11 01:29:40;;;;;;;10.48;5.30;;;;;;;14.88;91.05;95914.78;5039933;28;20047;-80
2021/08/11 01:32:58;;;;;;;11.73;5.45;;;;;;;14.97;91.10;95905.13;5047160;28;20049;-80
2021/08/11 01:35:44;;;;;;;9.52;4.88;;;;;;;15.06;90.73;95900.75;4994189;28;20175;-80
2021/08/11 01:38:17;;;;;;;9.23;4.95;;;;;;;15.02;90.27;95894.44;5042716;28;20041;-80
2021/08/11 01:40:55;;;;;;;10.30;4.85;;;;;;;15.01;90.60;95890.25;5054626;28;20028;-80
2021/08/11 01:43:24;;;;;;;11.38;5.43;;;;;;;15.01;91.01;95897.38;5034008;28;20099;-81
2021/08/11 01:45:50;;;;;;;11.18;4.90;;;;;;;15.09;90.55;95898.63;5058355;28;20045;-80
2021/08/11 01:48:26;;;;;;;12.25;5.15;;;;;;;15.05;91.37;95893.88;5055893;28;20041;-80
2021/08/11 01:50:54;;;;;;;12.57;5.18;;;;;;;14.93;91.69;95906.78;5032896;28;20053;-80
2021/08/11 01:53:21;;;;;;;15.32;5.43;;;;;;;15.02;91.44;95910.34;5031314;28;20550;-80
2021/08/11 01:55:53;;;;;;;9.05;5.15;;;;;;;14.99;91.40;95900.31;5035196;28;20041;-81
2021/08/11 01:58:26;;;;;;;12.88;5.25;;;;;;;14.92;91.43;95899.91;5049158;28;20044;-80
2021/08/11 02:00:56;;;;;;;10.10;5.25;;;;;;;14.90;91.20;95897.53;5048623;28;20037;-80
2021/08/11 02:03:23;;;;;;;11.88;5.55;;;;;;;14.72;91.95;95891.19;5034170;28;20056;-80
2021/08/11 02:05:52;;;;;;;9.75;5.35;;;;;;;14.71;91.97;95888.78;5058658;28;20045;-80
2021/08/11 02:08:20;;;;;;;11.00;4.78;;;;;;;14.71;91.51;95884.31;5066193;28;20052;-80
2021/08/11 02:10:46;;;;;;;9.45;5.00;;;;;;;14.63;91.16;95884.94;5038518;28;20467;-81
2021/08/11 02:13:11;;;;;;;8.38;4.85;;;;;;;14.62;92.07;95891.28;5031167;28;20041;-80
2021/08/11 02:15:38;;;;;;;9.48;4.80;;;;;;;14.64;91.31;95891.81;5042304;28;20049;-80
2021/08/11 02:18:04;;;;;;;7.95;4.88;;;;;;;14.69;90.80;95897.03;5042761;28;20045;-80
2021/08/11 02:20:30;;;;;;;8.43;4.88;;;;;;;14.57;91.38;95894.00;5038847;28;20103;-79
2021/08/11 02:22:56;;;;;;;9.00;4.65;;;;;;;14.52;91.83;95894.06;5045658;28;20434;-80
2021/08/11 02:25:22;;;;;;;10.48;5.18;;;;;;;14.52;91.45;95894.06;5051657;28;20502;-80
2021/08/11 02:27:56;;;;;;;9.27;4.93;;;;;;;14.47;91.30;95891.47;5047601;28;20692;-79
2021/08/11 02:30:29;;;;;;;9.00;5.13;;;;;;;14.41;92.20;95895.25;5031717;28;20049;-80
2021/08/11 02:33:04;;;;;;;8.80;4.93;;;;;;;14.36;91.96;95894.22;5039533;28;20044;-79
2021/08/11 02:35:40;;;;;;;10.27;5.20;;;;;;;14.36;91.90;95899.53;5050724;28;20044;-79
2021/08/11 02:38:09;;;;;;;10.48;5.45;;;;;;;14.40;92.13;95899.75;5040834;28;20411;-80
2021/08/11 02:40:38;;;;;;;12.38;5.20;;;;;;;14.41;92.31;95900.53;5042237;28;20042;-80
2021/08/11 02:43:16;;;;;;;6.90;4.55;;;;;;;14.33;92.25;95894.03;5061610;28;20043;-80
2021/08/11 02:45:45;;;;;;;10.80;4.97;;;;;;;14.20;93.27;95895.50;5064163;28;20037;-80
2021/08/11 02:48:13;;;;;;;12.10;5.10;;;;;;;14.20;93.02;95900.81;5052096;28;20040;-81
2021/08/11 02:50:40;;;;;;;10.05;4.78;;;;;;;14.23;92.52;95900.22;5035258;28;20128;-80
2021/08/11 02:53:09;;;;;;;7.68;4.82;;;;;;;14.27;92.35;95890.66;5050154;28;20685;-80
2021/08/11 02:55:37;;;;;;;8.32;5.00;;;;;;;14.30;92.09;95892.72;5051240;28;20036;-80
2021/08/11 02:58:04;;;;;;;11.23;5.95;;;;;;;14.29;91.87;95883.19;5030681;28;20121;-81
2021/08/11 03:00:31;;;;;;;10.40;4.57;;;;;;;14.33;91.79;95889.50;5036054;28;20581;-81
2021/08/11 03:02:56;;;;;;;8.57;4.75;;;;;;;14.18;92.58;95897.66;5041743;28;20072;-79
2021/08/11 03:05:22;;;;;;;7.22;4.80;;;;;;;14.28;92.34;95900.19;5034837;28;20557;-81
2021/08/11 03:07:48;;;;;;;8.15;4.90;;;;;;;14.40;91.69;95899.00;5041898;28;20600;-80
2021/08/11 03:10:14;;;;;;;11.20;6.20;;;;;;;14.33;91.85;95897.47;5044962;28;20045;-80
2021/08/11 03:12:44;;;;;;;9.60;4.55;;;;;;;14.20;92.74;95895.50;5044001;28;20139;-80
2021/08/11 03:15:11;;;;;;;8.60;4.57;;;;;;;14.29;92.63;95893.78;5032777;28;20045;-81
2021/08/11 03:17:37;;;;;;;8.82;4.47;;;;;;;14.28;93.28;95896.72;5038232;28;20043;-80
2021/08/11 03:20:04;;;;;;;11.65;5.13;;;;;;;14.28;92.79;95892.25;5033566;28;20045;-80
2021/08/11 03:22:30;;;;;;;7.70;4.80;;;;;;;14.39;91.90;95892.88;5038114;28;20049;-80
2021/08/11 03:24:55;;;;;;;7.57;4.65;;;;;;;14.41;91.99;95893.41;5048900;28;20041;-80
2021/08/11 03:27:21;;;;;;;8.60;4.68;;;;;;;14.30;92.30;95890.09;5046723;28;20047;-80
2021/08/11 03:29:47;;;;;;;11.98;5.30;;;;;;;14.32;93.34;95898.56;5035894;28;20407;-80
2021/08/11 03:32:12;;;;;;;8.80;4.88;;;;;;;14.30;92.94;95889.31;5035307;28;20487;-81
2021/08/11 03:34:38;;;;;;;8.90;4.20;;;;;;;14.35;92.66;95900.63;5030059;28;20065;-80
2021/08/11 03:37:04;;;;;;;7.40;5.07;;;;;;;14.61;92.50;95900.31;5037698;28;20046;-80
2021/08/11 03:39:30;;;;;;;7.13;4.50;;;;;;;14.58;92.66;95890.25;5029446;28;20045;-78
2021/08/11 03:41:55;;;;;;;8.45;4.82;;;;;;;14.47;92.70;95888.84;5041041;28;20620;-80
2021/08/11 03:44:21;;;;;;;8.98;4.85;;;;;;;14.45;92.75;95875.06;5030060;28;20497;-80
2021/08/11 03:46:47;;;;;;;8.43;5.00;;;;;;;14.25;93.39;95876.94;5048399;28;20048;-80
2021/08/11 03:49:12;;;;;;;10.55;5.00;;;;;;;14.16;94.52;95882.03;5038966;28;20554;-80
2021/08/11 03:51:38;;;;;;;8.63;4.95;;;;;;;14.23;94.28;95884.34;5039631;28;20044;-80
2021/08/11 03:54:03;;;;;;;6.90;4.60;;;;;;;14.33;93.00;95881.56;5056493;28;20138;-80
2021/08/11 03:56:29;;;;;;;7.90;4.82;;;;;;;14.27;92.95;95885.38;5070179;28;20044;-80
2021/08/11 03:58:54;;;;;;;10.70;5.25;;;;;;;14.11;93.03;95886.63;5049017;28;20098;-80
2021/08/11 04:01:20;;;;;;;9.30;4.50;;;;;;;13.90;94.36;95881.53;5044637;28;20043;-80
2021/08/11 04:03:46;;;;;;;9.05;5.45;;;;;;;13.90;94.76;95886.81;5046892;28;20407;-80
2021/08/11 04:06:13;;;;;;;6.95;4.65;;;;;;;13.82;95.12;95890.06;5048762;28;20418;-79
2021/08/11 04:08:39;;;;;;;7.85;4.47;;;;;;;14.06;93.37;95898.03;5047778;28;20107;-79
2021/08/11 04:11:04;;;;;;;8.32;4.60;;;;;;;13.95;93.03;95894.72;5042373;28;20530;-80
2021/08/11 04:13:30;;;;;;;9.38;4.57;;;;;;;13.89;93.57;95890.53;5053199;28;20661;-79
2021/08/11 04:15:55;;;;;;;7.78;4.53;;;;;;;13.95;93.38;95894.72;5054520;28;20060;-80
2021/08/11 04:18:21;;;;;;;8.57;4.50;;;;;;;13.98;93.81;95894.16;5037217;28;20120;-79
2021/08/11 04:20:47;;;;;;;7.60;4.55;;;;;;;13.90;94.27;95897.41;5032578;28;20052;-79
2021/08/11 04:23:13;;;;;;;7.22;4.47;;;;;;;13.75;94.53;95900.19;5041488;28;20041;-79
2021/08/11 04:25:40;;;;;;;8.73;4.55;;;;;;;13.72;94.70;95895.47;5069492;28;20041;-79
2021/08/11 04:28:07;;;;;;;9.23;4.88;;;;;;;13.69;94.22;95897.63;5045253;28;20052;-79
2021/08/11 04:30:33;;;;;;;7.20;4.50;;;;;;;13.80;93.69;95908.88;5047772;28;20043;-81
2021/08/11 04:32:59;;;;;;;12.40;4.88;;;;;;;13.85;93.04;95910.72;5044664;28;20784;-80
2021/08/11 04:35:24;;;;;;;7.43;4.55;;;;;;;13.80;93.76;95908.09;5049731;28;20048;-80
2021/08/11 04:37:50;;;;;;;7.78;4.50;;;;;;;13.75;93.88;95916.88;5046918;28;20052;-80
2021/08/11 04:40:16;;;;;;;10.90;4.93;;;;;;;13.81;93.99;95912.31;5044027;28;20139;-79
2021/08/11 04:42:41;;;;;;;7.32;4.78;;;;;;;13.81;94.05;95914.97;5052966;28;20078;-80
2021/08/11 04:45:08;;;;;;;12.88;4.82;;;;;;;13.75;94.12;95902.84;5053131;28;20048;-79
2021/08/11 04:47:33;;;;;;;9.02;5.00;;;;;;;13.76;94.71;95907.06;5068249;28;20437;-80
2021/08/11 04:49:59;;;;;;;10.32;4.88;;;;;;;13.76;94.49;95907.06;5040180;28;20037;-80
2021/08/11 04:52:25;;;;;;;7.72;4.50;;;;;;;13.74;94.68;95910.00;5037045;28;20037;-80
2021/08/11 04:54:50;;;;;;;7.55;5.13;;;;;;;13.76;94.93;95901.78;5031517;28;20044;-79
2021/08/11 04:57:16;;;;;;;10.52;5.28;;;;;;;13.81;95.58;95904.41;5048660;28;20072;-80
2021/08/11 04:59:41;;;;;;;11.65;5.10;;;;;;;13.93;95.22;95906.66;5035739;28;20099;-80
2021/08/11 05:02:07;;;;;;;7.88;4.70;;;;;;;13.99;95.06;95906.31;5037397;28;20554;-82
2021/08/11 05:04:32;;;;;;;11.52;5.18;;;;;;;13.95;95.34;95905.31;5029958;28;20037;-81
2021/08/11 05:06:58;;;;;;;9.65;4.93;;;;;;;13.99;95.38;95911.63;5049895;28;20037;-82
2021/08/11 05:09:24;;;;;;;7.47;5.15;;;;;;;14.06;95.36;95905.19;5046057;28;20042;-81
2021/08/11 05:11:50;;;;;;;9.70;5.40;;;;;;;14.13;95.67;95901.13;5048129;28;20041;-81
2021/08/11 05:14:15;;;;;;;14.25;5.30;;;;;;;14.20;95.81;95906.09;5037586;28;20099;-82
2021/08/11 05:16:41;;;;;;;8.48;5.05;;;;;;;14.23;95.13;95910.81;5040405;28;20666;-81
2021/08/11 05:19:06;;;;;;;9.75;5.57;;;;;;;14.26;95.53;95904.94;5045431;28;20044;-82
2021/08/11 05:21:33;;;;;;;10.75;5.43;;;;;;;14.31;95.42;95906.75;5033562;28;20049;-82
2021/08/11 05:23:58;;;;;;;9.00;4.63;;;;;;;14.34;95.56;95906.22;5031710;28;20636;-81
2021/08/11 05:26:24;;;;;;;12.98;4.85;;;;;;;14.50;95.27;95909.44;5041284;28;20041;-82
2021/08/11 05:28:50;;;;;;;14.73;6.85;;;;;;;14.57;94.79;95915.19;5038995;28;20050;-82
2021/08/11 05:31:16;;;;;;;8.52;4.90;;;;;;;14.56;95.57;95913.59;5032112;28;20041;-83
2021/08/11 05:33:41;;;;;;;12.02;4.90;;;;;;;14.59;95.49;95913.03;5044800;28;20069;-82
2021/08/11 05:36:07;;;;;;;9.15;4.50;;;;;;;14.60;95.13;95911.97;5045962;28;20049;-83
2021/08/11 05:38:34;;;;;;;9.82;4.75;;;;;;;14.63;95.04;95914.06;5042494;28;20036;-82
2021/08/11 05:41:00;;;;;;;8.27;5.20;;;;;;;14.67;95.74;95914.31;5032945;28;20049;-81
2021/08/11 05:43:26;;;;;;;8.73;5.25;;;;;;;14.81;96.60;95917.00;5053633;28;20047;-81
2021/08/11 05:45:51;;;;;;;11.05;5.45;;;;;;;14.89;96.43;95911.84;5055920;28;20044;-80
2021/08/11 05:48:18;;;;;;;9.75;5.05;;;;;;;15.09;95.94;95914.53;5035698;28;20542;-80
2021/08/11 05:50:44;;;;;;;8.88;5.50;;;;;;;15.12;96.20;95913.94;5047161;28;20036;-80
2021/08/11 05:53:09;;;;;;;11.30;5.20;;;;;;;15.09;96.16;95909.22;5039248;28;20042;-81
2021/08/11 05:55:35;;;;;;;9.18;5.00;;;;;;;15.14;95.46;95917.06;5035264;28;20491;-78
2021/08/11 05:58:01;;;;;;;8.43;4.95;;;;;;;15.16;94.83;95920.25;5050490;28;20402;-79
2021/08/11 06:00:26;;;;;;;8.25;5.20;;;;;;;15.24;96.94;95916.91;5039384;28;20041;-81
2021/08/11 06:02:52;;;;;;;11.13;5.63;;;;;;;15.31;96.61;95917.34;5043331;28;20465;-81
2021/08/11 06:05:17;;;;;;;11.38;5.18;;;;;;;15.41;96.61;95927.00;5040591;28;20080;-81
2021/08/11 06:07:43;;;;;;;8.27;4.85;;;;;;;15.50;96.31;95919.16;5033743;28;20116;-81
2021/08/11 06:10:09;;;;;;;8.27;5.00;;;;;;;15.56;96.20;95918.03;5031719;28;20530;-82
2021/08/11 06:12:35;;;;;;;8.63;4.82;;;;;;;15.59;96.02;95917.44;5039324;28;20044;-82
2021/08/11 06:15:01;;;;;;;8.35;5.32;;;;;;;15.70;96.29;95923.34;5059260;28;20441;-81
2021/08/11 06:17:26;;;;;;;8.38;5.00;;;;;;;15.83;96.55;95916.53;5060482;28;20063;-82
2021/08/11 06:19:52;;;;;;;8.38;5.38;;;;;;;15.90;96.65;95916.91;5055289;28;20041;-81
2021/08/11 06:22:18;;;;;;;10.10;5.10;;;;;;;15.98;96.55;95924.22;5048247;28;20128;-79
2021/08/11 06:24:44;;;;;;;12.88;5.40;;;;;;;16.32;95.12;95917.75;5050800;28;20041;-78
2021/08/11 06:27:09;;;;;;;8.80;5.20;;;;;;;16.51;94.00;95935.44;5040180;28;20591;-79
2021/08/11 06:29:35;;;;;;;12.05;5.18;;;;;;;16.82;92.85;95926.81;5035006;28;20108;-79
2021/08/11 06:32:02;;;;;;;10.48;5.03;;;;;;;17.04;92.69;95931.41;5051405;28;20052;-79
2021/08/11 06:34:28;;;;;;;10.70;5.47;;;;;;;17.42;88.66;95926.53;5050937;28;20507;-78
2021/08/11 06:36:53;;;;;;;8.00;4.90;;;;;;;17.37;90.73;95926.69;5053395;28;20044;-78
2021/08/11 06:39:19;;;;;;;9.23;4.93;;;;;;;17.29;90.83;95927.41;5038531;28;20510;-78
2021/08/11 06:41:45;;;;;;;8.70;4.65;;;;;;;17.48;88.09;95927.22;5049887;28;20041;-78
2021/08/11 06:44:11;;;;;;;8.75;4.68;;;;;;;17.47;88.38;95928.31;5054729;28;20041;-77
2021/08/11 06:46:36;;;;;;;10.50;5.68;;;;;;;17.68;87.54;95936.56;5053681;28;20603;-78
2021/08/11 06:49:02;;;;;;;8.80;4.78;;;;;;;17.87;84.76;95931.06;5043642;28;20053;-77
2021/08/11 06:51:27;;;;;;;9.45;4.70;;;;;;;17.96;85.53;95928.47;5045998;28;20040;-78
2021/08/11 06:53:53;;;;;;;7.90;4.72;;;;;;;17.83;84.71;95920.22;5055451;28;20037;-76
2021/08/11 06:56:19;;;;;;;8.00;4.35;;;;;;;17.89;84.78;95934.19;5045954;28;20049;-79
2021/08/11 06:58:44;;;;;;;8.23;4.78;;;;;;;17.81;86.31;95927.75;5044542;28;20055;-80
2021/08/11 07:01:10;;;;;;;8.85;4.47;;;;;;;18.05;82.89;95926.63;5043383;28;20071;-80
2021/08/11 07:03:35;;;;;;;8.50;4.25;;;;;;;17.92;82.62;95927.50;5052081;28;20494;-78
2021/08/11 07:06:01;;;;;;;7.07;4.18;;;;;;;18.31;76.26;95934.69;5055873;28;20052;-79
2021/08/11 07:08:27;;;;;;;12.40;4.47;;;;;;;18.27;81.16;95927.63;5059496;28;20111;-80
2021/08/11 07:10:53;;;;;;;9.65;4.40;;;;;;;18.07;83.14;95919.09;5046278;28;20045;-80
2021/08/11 07:13:21;;;;;;;8.27;5.07;;;;;;;18.27;81.42;95932.97;5068998;28;20060;-81
2021/08/11 07:15:47;;;;;;;11.60;5.47;;;;;;;18.53;79.00;95925.84;5049428;28;20040;-80
2021/08/11 07:18:16;;;;;;;8.23;4.40;;;;;;;18.72;77.50;95927.47;5068749;28;20049;-81
2021/08/11 07:20:42;;;;;;;9.25;4.60;;;;;;;18.87;76.24;95928.91;5042412;28;20046;-80
2021/08/11 07:23:08;;;;;;;8.27;4.20;;;;;;;18.80;75.97;95933.88;5045767;28;20045;-80
2021/08/11 07:25:34;;;;;;;7.88;4.30;;;;;;;18.59;77.25;95928.34;5067361;28;20040;-79
2021/08/11 07:27:59;;;;;;;5.82;3.88;;;;;;;18.81;75.53;95936.25;5048969;28;20040;-79
2021/08/11 07:30:25;;;;;;;7.72;4.00;;;;;;;18.74;74.02;95927.13;5058060;28;20670;-80
2021/08/11 07:32:51;;;;;;;8.13;3.80;;;;;;;19.13;70.31;95941.47;5057269;28;20044;-79
2021/08/11 07:35:17;;;;;;;8.65;4.18;;;;;;;19.10;72.70;95932.22;5047611;28;20049;-79
2021/08/11 07:37:51;;;;;;;7.55;4.38;;;;;;;19.05;72.43;95929.72;5053604;28;20037;-79
2021/08/11 07:40:18;;;;;;;6.78;4.13;;;;;;;19.07;71.52;95932.84;5057131;28;20032;-78
2021/08/11 07:42:44;;;;;;;7.28;3.45;;;;;;;19.31;69.37;95936.91;5039111;28;20041;-81
2021/08/11 07:45:11;;;;;;;4.25;2.92;;;;;;;19.14;72.16;95932.38;5053842;28;20568;-80
2021/08/11 07:47:37;;;;;;;6.35;3.70;;;;;;;19.19;69.10;95934.88;5055379;28;20048;-79
2021/08/11 07:50:05;;;;;;;6.63;3.50;;;;;;;19.58;68.27;95935.78;5046330;28;20051;-80
2021/08/11 07:52:30;;;;;;;9.07;3.35;;;;;;;19.25;70.56;95932.84;5041321;28;20701;-81
2021/08/11 07:54:56;;;;;;;4.40;3.00;;;;;;;19.55;63.15;95931.88;5042727;28;20037;-84
2021/08/11 07:57:21;;;;;;;6.35;3.30;;;;;;;19.56;66.97;95933.44;5032385;28;20076;-81
2021/08/11 07:59:47;;;;;;;6.97;3.20;;;;;;;19.52;66.81;95932.53;5039879;28;20115;-84
2021/08/11 08:02:13;;;;;;;5.38;3.00;;;;;;;19.23;66.96;95933.16;5038032;28;20037;-83
2021/08/11 08:04:41;;;;;;;7.20;3.20;;;;;;;19.11;68.90;95933.78;5037245;28;20057;-81
2021/08/11 08:07:07;;;;;;;5.22;2.90;;;;;;;19.90;64.52;95937.16;5030516;28;20546;-78
2021/08/11 08:09:33;;;;;;;5.68;3.17;;;;;;;19.58;68.85;95933.13;5033639;28;20061;-83
2021/08/11 08:11:58;;;;;;;7.07;2.70;;;;;;;20.14;63.61;95932.38;5039800;28;20055;-80
2021/08/11 08:14:24;;;;;;;6.63;3.17;;;;;;;20.19;65.32;95937.56;5051151;28;20090;-79
2021/08/11 08:16:50;;;;;;;5.32;2.60;;;;;;;20.06;63.69;95944.66;5051437;28;20037;-81
2021/08/11 08:19:15;;;;;;;5.07;2.90;;;;;;;20.10;64.58;95934.91;5030986;28;20687;-80
2021/08/11 08:21:41;;;;;;;7.25;3.20;;;;;;;19.81;65.74;95939.09;5034988;28;20051;-83
2021/08/11 08:24:06;;;;;;;6.38;3.35;;;;;;;19.95;65.19;95943.44;5047868;28;20065;-83
2021/08/11 08:26:32;;;;;;;5.93;3.28;;;;;;;19.72;67.90;95940.94;5029009;28;20044;-84
2021/08/11 08:28:57;;;;;;;6.90;3.17;;;;;;;19.85;65.51;95940.00;5045484;28;20057;-81
2021/08/11 08:31:23;;;;;;;6.85;3.10;;;;;;;20.01;63.06;95945.63;5042935;28;20045;-83
2021/08/11 08:33:48;;;;;;;5.65;3.20;;;;;;;20.11;64.09;95936.47;5036987;28;20080;-81
2021/08/11 08:36:14;;;;;;;8.40;3.75;;;;;;;20.62;61.39;95938.47;5033926;28;20041;-81
2021/08/11 08:38:40;;;;;;;7.10;3.38;;;;;;;20.60;61.15;95941.44;5041749;28;20079;-80
2021/08/11 08:41:06;;;;;;;6.13;3.83;;;;;;;20.72;61.64;95938.09;5038381;28;20052;-82
2021/08/11 08:43:31;;;;;;;7.47;3.42;;;;;;;20.60;61.80;95931.53;5029985;28;20054;-82
2021/08/11 08:45:57;;;;;;;7.15;3.22;;;;;;;20.79;60.99;95943.72;5031094;28;20480;-83
2021/08/11 08:48:24;;;;;;;8.65;3.70;;;;;;;20.89;61.97;95938.00;5036632;28;20139;-81
2021/08/11 08:50:50;;;;;;;11.40;3.95;;;;;;;20.95;60.93;95935.91;5049355;28;20041;-81
2021/08/11 08:53:22;;;;;;;11.52;4.00;;;;;;;21.10;61.42;95926.50;5052968;28;20903;-82
2021/08/11 08:55:49;;;;;;;7.22;4.15;;;;;;;20.96;61.10;95931.34;5040641;28;20526;-80
2021/08/11 08:58:14;;;;;;;10.13;4.15;;;;;;;21.18;60.53;95933.69;5045707;28;20128;-79
2021/08/11 09:00:41;;;;;;;7.07;3.70;;;;;;;21.07;61.55;95932.50;5038415;28;20044;-81
2021/08/11 09:03:06;;;;;;;9.38;4.38;;;;;;;21.21;59.81;95933.03;5036036;28;20485;-80
2021/08/11 09:05:32;;;;;;;5.90;3.75;;;;;;;21.32;59.39;95932.63;5038458;28;20048;-79
2021/08/11 09:07:57;;;;;;;9.85;4.05;;;;;;;21.47;59.77;95934.69;5042725;28;20061;-78
2021/08/11 09:10:31;;;;;;;8.85;4.03;;;;;;;21.42;58.67;95937.56;5053821;28;20083;-79
2021/08/11 09:13:09;;;;;;;9.37;5.00;;;;;;;21.60;58.04;95944.38;5049873;28;20082;-80
2021/08/11 09:15:38;;;;;;;7.80;4.00;;;;;;;21.65;60.23;95932.69;5044777;28;20383;-81
2021/08/11 09:18:18;;;;;;;8.13;4.18;;;;;;;21.63;57.94;95933.00;5048768;28;20112;-83
2021/08/11 09:21:04;;;;;;;10.30;4.30;;;;;;;21.57;59.44;95934.31;5043224;28;20135;-79
2021/08/11 09:23:37;;;;;;;9.60;4.00;;;;;;;21.48;61.27;95925.56;5038244;28;20069;-81
2021/08/11 09:26:05;;;;;;;7.60;4.18;;;;;;;21.68;58.44;95933.91;5046140;28;20067;-81
2021/08/11 09:28:33;;;;;;;8.50;4.45;;;;;;;21.83;58.85;95930.59;5052908;28;20043;-83
2021/08/11 09:30:59;;;;;;;10.55;4.40;;;;;;;22.00;57.27;95924.28;5050302;28;20065;-81
2021/08/11 09:33:26;;;;;;;7.82;4.10;;;;;;;22.08;60.27;95933.31;5052948;28;20067;-81
2021/08/11 09:35:53;;;;;;;7.63;4.03;;;;;;;22.33;58.22;95926.13;5061424;28;20037;-83
2021/08/11 09:38:19;;;;;;;9.90;4.07;;;;;;;22.34;58.08;95921.53;5039203;28;20491;-83
2021/08/11 09:40:46;;;;;;;8.70;3.90;;;;;;;22.25;56.53;95922.38;5038259;28;20037;-81
2021/08/11 09:43:16;;;;;;;8.95;4.00;;;;;;;22.45;57.32;95911.91;5044509;28;20037;-84
2021/08/11 09:45:47;;;;;;;7.55;4.10;;;;;;;22.22;59.02;95920.38;5035021;28;20041;-83
2021/08/11 09:48:15;;;;;;;9.15;4.40;;;;;;;22.45;57.49;95917.28;5032488;28;20052;-81
2021/08/11 09:50:47;;;;;;;9.48;4.20;;;;;;;22.37;57.41;95918.16;5037691;28;20094;-82
2021/08/11 09:53:23;;;;;;;9.85;4.30;;;;;;;22.48;56.55;95919.28;5049881;28;20056;-81
2021/08/11 09:56:05;;;;;;;8.32;4.50;;;;;;;22.64;55.93;95914.03;5056835;28;20044;-80
2021/08/11 09:58:39;;;;;;;7.18;4.38;;;;;;;22.63;55.79;95915.94;5042234;28;20038;-82
2021/08/11 10:01:24;;;;;;;7.97;4.38;;;;;;;22.64;54.57;95909.44;5031673;28;20072;-81
2021/08/11 10:04:00;;;;;;;10.48;4.40;;;;;;;22.80;55.19;95911.41;5048135;28;20059;-80
2021/08/11 10:06:34;;;;;;;9.30;4.60;;;;;;;22.78;57.89;95903.72;5063125;28;20044;-80
2021/08/11 10:09:25;;;;;;;10.93;4.88;;;;;;;23.14;58.20;95910.16;5044157;28;20497;-85
2021/08/11 10:11:57;;;;;;;10.55;4.82;;;;;;;23.45;56.60;95902.53;5049584;28;20072;-83
2021/08/11 10:14:37;;;;;;;9.13;4.47;;;;;;;23.49;56.37;95892.69;5052705;28;20053;-83
2021/08/11 10:17:05;;;;;;;8.07;4.75;;;;;;;23.75;56.34;95905.63;5058654;28;20403;-81
2021/08/11 10:19:41;;;;;;;6.40;4.57;;;;;;;23.96;55.93;95915.38;5043090;28;20053;-83
2021/08/11 10:22:14;;;;;;;8.23;4.53;;;;;;;24.25;53.67;95916.88;5056435;28;20075;-77
2021/08/11 10:24:41;;;;;;;7.90;4.63;;;;;;;24.48;53.34;95908.16;5057042;28;20052;-77
2021/08/11 10:27:10;;;;;;;11.82;4.70;;;;;;;24.51;50.72;95888.63;5038117;28;20064;-81
2021/08/11 10:29:46;;;;;;;6.80;4.45;;;;;;;24.65;51.77;95897.06;5034077;28;20065;-78
2021/08/11 10:32:15;;;;;;;6.90;4.40;;;;;;;24.62;52.51;95897.72;5029984;28;20053;-78
2021/08/11 10:34:42;;;;;;;8.10;4.82;;;;;;;24.93;52.01;95901.47;5035479;28;20429;-78
2021/08/11 10:37:11;;;;;;;11.80;4.40;;;;;;;25.31;51.60;95899.94;5032917;28;20041;-80
2021/08/11 10:39:39;;;;;;;9.73;5.13;;;;;;;25.82;49.26;95901.66;5040566;28;20709;-79
2021/08/11 10:42:14;;;;;;;8.15;4.97;;;;;;;26.07;48.76;95896.69;5035476;28;20038;-78
2021/08/11 10:44:40;;;;;;;8.65;4.80;;;;;;;26.30;47.54;95895.91;5038991;28;20530;-79
2021/08/11 10:47:08;;;;;;;13.30;5.18;;;;;;;26.37;46.53;95898.72;5032335;28;20054;-81
2021/08/11 10:49:51;;;;;;;7.20;5.20;;;;;;;26.35;48.16;95901.00;5040553;28;20107;-83
2021/08/11 10:52:17;;;;;;;10.27;4.90;;;;;;;27.46;46.77;95885.50;5036551;28;20057;-82
2021/08/11 10:55:04;;;;;;;9.15;5.07;;;;;;;27.54;43.98;95885.56;5041830;28;20095;-82
2021/08/11 10:57:38;;;;;;;7.25;4.55;;;;;;;28.18;44.68;95890.81;5046662;28;20052;-81
2021/08/11 11:00:06;;;;;;;8.10;5.05;;;;;;;28.27;45.64;95890.50;5050437;28;20064;-83
2021/08/11 11:02:39;;;;;;;9.75;4.97;;;;;;;28.81;44.86;95882.75;5046873;28;20499;-81
2021/08/11 11:05:06;;;;;;;10.50;5.38;;;;;;;28.70;43.24;95888.09;5037772;28;20099;-81
2021/08/11 11:07:32;;;;;;;9.75;5.32;;;;;;;29.14;41.46;95879.00;5045862;28;20655;-80
2021/08/11 11:10:24;;;;;;;8.15;5.32;;;;;;;28.64;40.50;95884.19;5035899;28;20068;-81
2021/08/11 11:12:49;;;;;;;10.50;5.18;;;;;;;28.27;42.22;95872.31;5042070;28;20120;-79
2021/08/11 11:15:15;;;;;;;8.50;5.47;;;;;;;28.60;43.97;95877.94;5045332;28;20526;-83
2021/08/11 11:18:21;;;;;;;8.68;5.40;;;;;;;28.64;40.49;95878.78;5044972;28;20469;-79
2021/08/11 11:20:48;;;;;;;8.45;5.35;;;;;;;28.85;39.87;95873.47;5036739;28;20068;-77
2021/08/11 11:23:44;;;;;;;8.52;5.20;;;;;;;29.46;39.55;95878.34;5029882;28;20068;-76
2021/08/11 11:26:10;;;;;;;7.85;5.25;;;;;;;29.64;40.71;95866.78;5032198;28;20060;-77
2021/08/11 11:28:52;;;;;;;8.20;5.55;;;;;;;28.17;41.93;95873.81;5039589;28;20179;-77
2021/08/11 11:31:27;;;;;;;10.32;5.50;;;;;;;28.29;43.22;95874.66;5041274;28;20056;-78
2021/08/11 11:33:53;;;;;;;10.75;6.05;;;;;;;28.95;42.17;95868.47;5033136;28;20065;-77
2021/08/11 11:36:20;;;;;;;9.60;5.40;;;;;;;28.82;42.87;95868.81;5041415;28;20045;-76